Time;durP1;ratioP1;P1;durP2;ratioP2;P2;SDS_P1;SDS_P2;PMS_P1;PMS_P2;Temp;Humidity;BMP_temperature;BMP_pressure;BME280_temperature;BME280_humidity;BME280_pressure;Samples;Min_cycle;Max_cycle;Signal;HPM_P1;HPM_P2
2023/02/05 00:01:20;;;;;;;12.80;5.00;;;;;;;-4.14;100.00;99528.20;106125;1257;70316;-77
2023/02/05 00:03:47;;;;;;;12.90;5.80;;;;;;;-4.11;100.00;99529.67;106321;1257;71832;-79
2023/02/05 00:06:14;;;;;;;13.80;5.80;;;;;;;-4.09;100.00;99533.55;106353;1251;61259;-77
2023/02/05 00:08:40;;;;;;;14.90;5.80;;;;;;;-4.08;100.00;99538.53;106318;1251;61215;-79
2023/02/05 00:11:08;;;;;;;25.20;10.20;;;;;;;-4.05;100.00;99542.68;106316;1264;61341;-79
2023/02/05 00:13:39;;;;;;;22.60;10.80;;;;;;;-4.05;100.00;99546.70;106305;1257;70116;-78
2023/02/05 00:16:14;;;;;;;9.30;5.30;;;;;;;-4.12;100.00;99557.13;106347;1251;72557;-77
2023/02/05 00:18:40;;;;;;;9.80;3.70;;;;;;;-4.19;100.00;99558.33;106308;1253;61304;-79
2023/02/05 00:21:07;;;;;;;14.80;5.50;;;;;;;-4.19;100.00;99563.14;106329;1256;61488;-77
2023/02/05 00:23:33;;;;;;;10.70;3.80;;;;;;;-4.16;100.00;99566.93;106326;1256;74557;-77
2023/02/05 00:26:00;;;;;;;6.40;3.40;;;;;;;-4.21;100.00;99570.68;106318;1256;70919;-77
2023/02/05 00:28:27;;;;;;;19.40;11.20;;;;;;;-4.28;100.00;99577.70;106399;1256;71407;-79
2023/02/05 00:30:53;;;;;;;7.10;4.90;;;;;;;-4.28;100.00;99579.65;106348;1251;61333;-79
2023/02/05 00:33:20;;;;;;;23.90;8.50;;;;;;;-4.32;100.00;99578.66;106277;1257;61307;-79
2023/02/05 00:35:47;;;;;;;8.90;5.10;;;;;;;-4.37;100.00;99579.67;106319;1251;74943;-77
2023/02/05 00:38:13;;;;;;;8.60;4.70;;;;;;;-4.36;100.00;99581.83;106317;1257;62289;-78
2023/02/05 00:40:40;;;;;;;11.40;6.30;;;;;;;-4.33;100.00;99583.17;106350;1251;61262;-77
2023/02/05 00:43:06;;;;;;;12.00;4.70;;;;;;;-4.39;100.00;99582.54;106266;1257;61236;-78
2023/02/05 00:45:34;;;;;;;17.80;8.80;;;;;;;-4.44;100.00;99585.80;106381;1256;60313;-78
2023/02/05 00:48:01;;;;;;;11.20;5.20;;;;;;;-4.45;100.00;99588.73;106342;1257;74859;-76
2023/02/05 00:50:28;;;;;;;10.00;5.80;;;;;;;-4.48;100.00;99589.70;106311;1251;70837;-76
2023/02/05 00:52:54;;;;;;;12.30;3.80;;;;;;;-4.54;100.00;99598.55;106293;1256;61141;-77
2023/02/05 00:55:21;;;;;;;5.60;2.80;;;;;;;-4.62;100.00;99596.13;106267;1257;61344;-76
2023/02/05 00:57:47;;;;;;;5.70;2.20;;;;;;;-4.71;100.00;99594.02;106337;1257;61242;-76
2023/02/05 01:00:14;;;;;;;6.90;2.00;;;;;;;-4.89;100.00;99596.89;106310;1255;74539;-77
2023/02/05 01:02:41;;;;;;;9.50;3.70;;;;;;;-4.89;100.00;99596.89;106303;1255;71112;-78
2023/02/05 01:05:07;;;;;;;6.80;4.10;;;;;;;-4.89;100.00;99595.89;106286;1256;61311;-77
2023/02/05 01:07:34;;;;;;;2.80;1.90;;;;;;;-4.93;100.00;99596.77;106308;1255;61724;-78
2023/02/05 01:10:00;;;;;;;3.70;2.20;;;;;;;-4.97;100.00;99595.91;106313;1256;61856;-77
2023/02/05 01:12:27;;;;;;;4.60;2.20;;;;;;;-4.97;100.00;99599.45;106345;1252;61330;-77
2023/02/05 01:14:53;;;;;;;3.80;1.60;;;;;;;-4.98;100.00;99596.19;106287;1257;61285;-78
2023/02/05 01:17:19;;;;;;;5.10;2.40;;;;;;;-4.98;100.00;99597.02;106267;1257;61372;-77
2023/02/05 01:19:46;;;;;;;6.50;3.70;;;;;;;-4.97;100.00;99594.13;106321;1257;61282;-78
2023/02/05 01:22:12;;;;;;;3.50;1.90;;;;;;;-4.95;100.00;99583.95;106335;1254;61317;-77
2023/02/05 01:24:39;;;;;;;3.30;2.00;;;;;;;-4.93;100.00;99575.64;106283;1251;61310;-78
2023/02/05 01:27:05;;;;;;;4.40;2.80;;;;;;;-4.89;100.00;99570.45;106319;1254;61241;-78
2023/02/05 01:29:31;;;;;;;5.10;2.80;;;;;;;-4.86;100.00;99574.65;106320;1256;61412;-76
2023/02/05 01:31:58;;;;;;;4.50;2.70;;;;;;;-4.85;100.00;99575.77;106319;1251;61336;-77
2023/02/05 01:34:24;;;;;;;3.60;2.10;;;;;;;-4.84;100.00;99581.30;106326;1251;61355;-76
2023/02/05 01:36:50;;;;;;;4.00;1.80;;;;;;;-4.90;100.00;99580.58;106318;1257;61307;-77
2023/02/05 01:39:17;;;;;;;3.40;2.00;;;;;;;-4.92;100.00;99583.99;106300;1255;61432;-78
2023/02/05 01:41:44;;;;;;;6.40;3.60;;;;;;;-4.95;100.00;99584.25;106284;1257;61334;-77
2023/02/05 01:44:17;;;;;;;3.50;1.20;;;;;;;-5.01;100.00;99588.54;106239;1254;61355;-77
2023/02/05 01:46:44;;;;;;;3.60;1.80;;;;;;;-5.08;100.00;99591.11;106324;1254;61284;-76
2023/02/05 01:49:25;;;;;;;4.40;2.40;;;;;;;-5.07;100.00;99593.70;106294;1254;73588;-77
2023/02/05 01:51:52;;;;;;;4.30;2.90;;;;;;;-5.08;100.00;99594.98;106266;1256;61368;-78
2023/02/05 01:54:19;;;;;;;5.20;3.20;;;;;;;-5.07;100.00;99590.83;106039;1254;70843;-79
2023/02/05 01:56:48;;;;;;;5.30;4.00;;;;;;;-5.04;100.00;99591.98;106043;1256;61346;-78
2023/02/05 01:59:18;;;;;;;5.60;2.90;;;;;;;-5.00;100.00;99584.10;106386;1252;61253;-77
2023/02/05 02:01:44;;;;;;;5.90;3.00;;;;;;;-4.96;100.00;99587.39;106352;1256;74182;-78
2023/02/05 02:04:11;;;;;;;7.00;4.20;;;;;;;-4.94;100.00;99588.63;106080;1259;69895;-78
2023/02/05 02:06:38;;;;;;;15.60;8.70;;;;;;;-4.92;100.00;99593.82;106196;1253;72641;-77
2023/02/05 02:09:05;;;;;;;9.50;5.30;;;;;;;-4.92;100.00;99586.05;106302;1251;61272;-78
2023/02/05 02:11:34;;;;;;;5.50;3.50;;;;;;;-4.90;100.00;99583.95;106292;1252;60218;-77
2023/02/05 02:14:01;;;;;;;8.20;3.40;;;;;;;-4.88;100.00;99579.17;106358;1251;74594;-78
2023/02/05 02:16:27;;;;;;;4.90;3.00;;;;;;;-4.87;100.00;99581.00;106283;1257;70888;-78
2023/02/05 02:18:53;;;;;;;4.10;2.50;;;;;;;-4.86;100.00;99580.11;106159;1256;61575;-78
2023/02/05 02:21:25;;;;;;;5.30;3.00;;;;;;;-4.86;100.00;99582.73;106291;1255;61185;-78
2023/02/05 02:24:29;;;;;;;6.60;3.30;;;;;;;-4.87;100.00;99581.92;106280;1251;61212;-78
2023/02/05 02:26:56;;;;;;;7.20;5.00;;;;;;;-4.88;100.00;99586.08;106331;1255;65916;-79
2023/02/05 02:29:29;;;;;;;5.00;3.50;;;;;;;-4.90;100.00;99583.81;106313;1257;69337;-76
2023/02/05 02:31:58;;;;;;;8.30;4.80;;;;;;;-4.93;100.00;99586.70;106067;1254;72553;-77
2023/02/05 02:34:42;;;;;;;16.10;8.20;;;;;;;-4.98;100.00;99583.84;106131;1251;62230;-77
2023/02/05 02:37:14;;;;;;;11.20;5.90;;;;;;;-5.08;100.00;99589.17;106369;1256;61126;-78
2023/02/05 02:39:51;;;;;;;7.80;5.20;;;;;;;-5.21;100.00;99592.66;106356;1252;73441;-77
2023/02/05 02:42:23;;;;;;;12.00;5.90;;;;;;;-5.37;100.00;99591.48;106271;1257;69874;-76
2023/02/05 02:44:58;;;;;;;12.00;6.40;;;;;;;-5.48;100.00;99593.94;106089;1254;70427;-78
2023/02/05 02:47:28;;;;;;;13.20;8.00;;;;;;;-5.58;100.00;99595.66;106257;1254;61237;-79
2023/02/05 02:49:59;;;;;;;16.60;8.60;;;;;;;-5.66;100.00;99597.65;106378;1256;61167;-78
2023/02/05 02:52:26;;;;;;;12.70;5.80;;;;;;;-5.71;100.00;99600.96;106055;1252;74694;-78
2023/02/05 02:54:55;;;;;;;8.80;4.90;;;;;;;-5.75;100.00;99604.95;106301;1251;61240;-77
2023/02/05 02:57:21;;;;;;;;;;;;;;;-5.79;100.00;99602.02;106105;1251;71457;-76
2023/02/05 02:59:48;;;;;;;11.50;5.70;;;;;;;-5.86;100.00;99600.53;106210;1255;61225;-78
2023/02/05 03:02:15;;;;;;;16.00;6.90;;;;;;;-5.92;100.00;99600.23;106302;1252;61352;-78
2023/02/05 03:04:45;;;;;;;14.10;6.40;;;;;;;-5.99;100.00;99611.73;106234;1254;74581;-77
2023/02/05 03:07:35;;;;;;;12.20;6.50;;;;;;;-6.07;100.00;99610.85;106053;1254;71077;-78
2023/02/05 03:10:03;;;;;;;19.50;7.90;;;;;;;-6.20;100.00;99614.83;106208;1254;62819;-79
2023/02/05 03:12:29;;;;;;;11.60;5.70;;;;;;;-6.32;100.00;99611.13;106299;1253;61283;-80
2023/02/05 03:14:55;;;;;;;17.30;8.20;;;;;;;-6.44;100.00;99614.48;106462;1255;61323;-79
2023/02/05 03:17:22;;;;;;;13.70;7.00;;;;;;;-6.59;100.00;99615.24;106203;1254;61336;-77
2023/02/05 03:19:53;;;;;;;13.40;7.60;;;;;;;-6.68;100.00;99618.48;106202;1257;61340;-78
2023/02/05 03:22:19;;;;;;;11.70;7.10;;;;;;;-6.74;100.00;99613.75;106246;1254;72980;-79
2023/02/05 03:24:45;;;;;;;15.60;8.80;;;;;;;-6.84;100.00;99615.95;106162;1257;61258;-78
2023/02/05 03:27:12;;;;;;;14.10;8.50;;;;;;;-6.94;100.00;99616.98;106182;1254;61223;-78
2023/02/05 03:29:43;;;;;;;15.40;8.30;;;;;;;-7.03;100.00;99621.30;106195;1254;61134;-79
2023/02/05 03:32:26;;;;;;;16.30;8.60;;;;;;;-7.22;100.00;99630.26;106017;1254;71329;-77
2023/02/05 03:35:02;;;;;;;15.90;7.90;;;;;;;-7.43;100.00;99625.34;106227;1255;71607;-76
2023/02/05 03:37:59;;;;;;;9.30;5.40;;;;;;;-7.54;100.00;99625.66;106192;1253;61281;-77
2023/02/05 03:40:33;;;;;;;10.00;4.90;;;;;;;-7.60;100.00;99627.63;106284;1257;61119;-78
2023/02/05 03:43:10;;;;;;;7.90;4.90;;;;;;;-7.66;100.00;99632.46;106317;1256;74551;-77
2023/02/05 03:46:00;;;;;;;10.30;6.80;;;;;;;-7.73;100.00;99633.02;106290;1256;69789;-78
2023/02/05 03:48:42;;;;;;;10.40;6.10;;;;;;;-7.79;100.00;99635.65;106090;1254;62990;-78
2023/02/05 03:51:11;;;;;;;11.40;6.30;;;;;;;-7.87;100.00;99632.26;106284;1252;61259;-76
2023/02/05 03:54:20;;;;;;;9.80;7.20;;;;;;;-7.97;100.00;99626.95;106299;1254;61229;-76
2023/02/05 03:57:02;;;;;;;10.50;6.00;;;;;;;-8.11;100.00;99625.44;105532;1266;66370;-78
2023/02/05 03:59:28;;;;;;;19.40;7.40;;;;;;;-8.19;100.00;99625.16;105857;1254;138629;-76
2023/02/05 04:01:55;;;;;;;8.70;5.30;;;;;;;-8.31;100.00;99621.23;105979;1254;72457;-76
2023/02/05 04:04:21;;;;;;;11.70;5.80;;;;;;;-8.42;100.00;99623.32;105934;1257;61773;-76
2023/02/05 04:06:48;;;;;;;13.10;5.70;;;;;;;-8.56;100.00;99624.73;106182;1254;61396;-76
2023/02/05 04:09:14;;;;;;;13.90;8.30;;;;;;;-8.60;100.00;99617.71;106262;1253;74520;-78
2023/02/05 04:11:41;;;;;;;13.30;7.30;;;;;;;-8.66;100.00;99621.03;106247;1257;61289;-78
2023/02/05 04:14:07;;;;;;;13.60;6.30;;;;;;;-8.76;100.00;99620.02;106281;1257;61356;-79
2023/02/05 04:16:34;;;;;;;9.60;4.80;;;;;;;-8.79;100.00;99623.58;106274;1256;61246;-77
2023/02/05 04:19:00;;;;;;;14.60;6.10;;;;;;;-8.89;100.00;99625.54;106269;1256;61257;-79
2023/02/05 04:21:26;;;;;;;15.50;6.10;;;;;;;-8.92;100.00;99626.52;106248;1254;61243;-77
2023/02/05 04:23:53;;;;;;;12.10;7.10;;;;;;;-8.96;100.00;99630.29;106279;1254;61339;-77
2023/02/05 04:26:19;;;;;;;13.10;6.60;;;;;;;-9.05;100.00;99633.64;106272;1255;61339;-78
2023/02/05 04:28:45;;;;;;;12.90;5.30;;;;;;;-9.15;100.00;99641.77;106243;1254;61240;-77
2023/02/05 04:31:12;;;;;;;12.60;5.70;;;;;;;-9.27;100.00;99647.19;106268;1254;61249;-78
2023/02/05 04:33:39;;;;;;;11.00;5.60;;;;;;;-9.28;100.00;99651.70;106289;1257;61362;-79
2023/02/05 04:36:06;;;;;;;16.80;7.40;;;;;;;-9.28;100.00;99650.63;106232;1256;61256;-77
2023/02/05 04:38:32;;;;;;;15.00;7.50;;;;;;;-9.32;100.00;99650.20;106219;1254;61246;-77
2023/02/05 04:40:59;;;;;;;14.50;7.40;;;;;;;-9.30;100.00;99651.95;106320;1251;61370;-77
2023/02/05 04:43:25;;;;;;;22.10;8.70;;;;;;;-9.23;100.00;99651.28;106302;1251;61240;-76
2023/02/05 04:45:52;;;;;;;38.20;14.90;;;;;;;-9.19;100.00;99652.37;106307;1257;61330;-76
2023/02/05 04:48:20;;;;;;;23.10;10.80;;;;;;;-9.22;100.00;99656.11;106284;1251;61306;-78
2023/02/05 04:50:46;;;;;;;20.30;8.50;;;;;;;-9.14;100.00;99655.17;106320;1255;71371;-78
2023/02/05 04:53:13;;;;;;;26.40;10.50;;;;;;;-9.08;100.00;99657.48;106385;1256;61215;-78
2023/02/05 04:55:40;;;;;;;18.10;9.00;;;;;;;-8.98;100.00;99652.40;106317;1256;61557;-77
2023/02/05 04:58:06;;;;;;;24.50;10.20;;;;;;;-8.90;100.00;99647.23;106284;1254;61327;-78
2023/02/05 05:00:32;;;;;;;25.60;10.00;;;;;;;-8.83;100.00;99647.55;106275;1254;61327;-78
2023/02/05 05:02:59;;;;;;;22.30;9.30;;;;;;;-8.73;100.00;99638.59;106299;1254;61326;-76
2023/02/05 05:05:25;;;;;;;19.60;8.40;;;;;;;-8.67;100.00;99648.03;106264;1254;61344;-79
2023/02/05 05:07:52;;;;;;;22.90;9.00;;;;;;;-8.65;100.00;99655.30;106289;1252;61266;-78
2023/02/05 05:10:18;;;;;;;21.00;10.10;;;;;;;-8.57;100.00;99647.48;106284;1254;61717;-78
2023/02/05 05:12:44;;;;;;;17.30;7.80;;;;;;;-8.51;100.00;99652.66;106269;1254;61243;-76
2023/02/05 05:15:11;;;;;;;35.90;16.80;;;;;;;-8.48;100.00;99656.92;106288;1257;62021;-78
2023/02/05 05:17:37;;;;;;;33.30;18.20;;;;;;;-8.42;100.00;99657.04;106112;1252;61288;-77
2023/02/05 05:20:04;;;;;;;28.90;13.80;;;;;;;-8.45;100.00;99664.63;106096;1254;61199;-77
2023/02/05 05:22:30;;;;;;;24.40;11.70;;;;;;;-8.51;100.00;99661.71;106291;1257;61211;-77
2023/02/05 05:24:57;;;;;;;26.30;12.80;;;;;;;-8.45;100.00;99660.05;106310;1257;61348;-76
2023/02/05 05:27:23;;;;;;;28.30;13.80;;;;;;;-8.39;100.00;99657.23;106259;1254;61322;-77
2023/02/05 05:29:50;;;;;;;20.30;10.10;;;;;;;-8.34;100.00;99665.67;106336;1254;61320;-76
2023/02/05 05:32:16;;;;;;;25.40;11.60;;;;;;;-8.25;100.00;99670.50;106347;1253;61138;-76
2023/02/05 05:34:42;;;;;;;24.20;11.30;;;;;;;-8.18;100.00;99671.77;106326;1256;61243;-76
2023/02/05 05:37:09;;;;;;;26.20;14.20;;;;;;;-8.15;100.00;99673.09;106303;1254;61244;-76
2023/02/05 05:45:06;;;;;;;32.30;19.60;;;;;;;-7.96;100.00;99688.71;106347;1251;61256;-78
2023/02/05 05:47:32;;;;;;;38.10;19.20;;;;;;;-7.87;100.00;99689.65;106249;1251;74588;-76
2023/02/05 05:49:59;;;;;;;37.30;20.00;;;;;;;-7.78;100.00;99695.20;106273;1251;61351;-76
2023/02/05 05:52:25;;;;;;;38.30;21.10;;;;;;;-7.69;100.00;99702.02;106352;1256;61317;-77
2023/02/05 05:54:51;;;;;;;40.90;21.50;;;;;;;-7.62;100.00;99707.60;106305;1254;62182;-76
2023/02/05 05:57:18;;;;;;;46.80;26.80;;;;;;;-7.55;100.00;99707.02;106287;1251;61243;-78
2023/02/05 05:59:44;;;;;;;39.60;22.10;;;;;;;-7.48;100.00;99706.35;106180;1251;61278;-76
2023/02/05 06:02:11;;;;;;;41.30;22.40;;;;;;;-7.44;100.00;99714.61;106295;1251;61312;-77
2023/02/05 06:04:37;;;;;;;39.60;25.30;;;;;;;-7.41;100.00;99718.73;106307;1251;61237;-78
2023/02/05 06:07:04;;;;;;;37.80;19.60;;;;;;;-7.37;100.00;99728.38;106199;1251;61460;-78
2023/02/05 06:09:30;;;;;;;35.00;20.30;;;;;;;-7.29;100.00;99736.94;106329;1251;61254;-76
2023/02/05 06:11:57;;;;;;;30.00;18.80;;;;;;;-7.34;100.00;99737.48;106338;1251;61359;-76
2023/02/05 06:14:23;;;;;;;72.60;36.30;;;;;;;-7.35;100.00;99737.02;106308;1251;62282;-78
2023/02/05 06:16:51;;;;;;;49.00;28.60;;;;;;;-7.27;100.00;99737.08;106299;1251;61333;-78
2023/02/05 06:19:17;;;;;;;42.40;25.90;;;;;;;-7.22;100.00;99735.59;106298;1257;61216;-78
2023/02/05 06:21:43;;;;;;;37.50;22.30;;;;;;;-7.16;100.00;99737.98;106324;1251;61322;-78
2023/02/05 06:24:10;;;;;;;25.70;14.60;;;;;;;-7.12;100.00;99734.62;106293;1251;61304;-78
2023/02/05 06:26:36;;;;;;;27.50;16.00;;;;;;;-7.09;100.00;99737.89;106319;1251;61313;-78
2023/02/05 06:29:03;;;;;;;26.90;15.40;;;;;;;-7.06;100.00;99743.83;106330;1251;61266;-76
2023/02/05 06:31:30;;;;;;;28.50;17.60;;;;;;;-6.99;100.00;99748.17;106334;1255;61320;-76
2023/02/05 06:33:56;;;;;;;32.60;18.00;;;;;;;-6.92;100.00;99745.98;106319;1251;61240;-76
2023/02/05 06:36:23;;;;;;;33.70;19.10;;;;;;;-6.85;100.00;99746.95;106366;1251;61215;-77
2023/02/05 06:38:49;;;;;;;30.60;17.10;;;;;;;-6.76;100.00;99747.48;106355;1256;61163;-78
2023/02/05 06:41:15;;;;;;;38.90;20.30;;;;;;;-6.70;100.00;99749.95;106334;1251;61241;-76
2023/02/05 06:43:42;;;;;;;35.90;19.50;;;;;;;-6.69;100.00;99751.61;106288;1251;61339;-78
2023/02/05 06:46:08;;;;;;;31.50;19.40;;;;;;;-6.65;100.00;99750.41;106309;1255;61338;-76
2023/02/05 06:48:35;;;;;;;29.50;17.30;;;;;;;-6.61;100.00;99750.23;106254;1255;62323;-78
2023/02/05 06:51:01;;;;;;;39.60;19.30;;;;;;;-6.55;100.00;99757.16;106295;1252;61271;-77
2023/02/05 06:53:28;;;;;;;33.30;16.70;;;;;;;-6.51;100.00;99765.77;106287;1251;61319;-78
2023/02/05 06:55:57;;;;;;;50.30;21.10;;;;;;;-6.46;100.00;99771.38;106247;1254;61423;-78
2023/02/05 06:58:24;;;;;;;53.90;22.20;;;;;;;-6.43;100.00;99772.80;106305;1254;61327;-78
2023/02/05 07:00:50;;;;;;;45.80;22.10;;;;;;;-6.43;100.00;99777.36;106271;1254;61231;-78
2023/02/05 07:03:16;;;;;;;53.00;21.90;;;;;;;-6.41;100.00;99777.21;106248;1254;61112;-79
2023/02/05 07:05:43;;;;;;;42.20;18.00;;;;;;;-6.37;100.00;99783.44;106250;1252;61237;-78
2023/02/05 07:08:09;;;;;;;29.40;17.70;;;;;;;-6.32;100.00;99789.09;106221;1254;61252;-76
2023/02/05 07:10:36;;;;;;;45.00;22.20;;;;;;;-6.28;100.00;99788.96;106221;1253;61385;-77
2023/02/05 07:13:02;;;;;;;53.30;28.20;;;;;;;-6.19;100.00;99792.63;106041;1254;61355;-78
2023/02/05 07:15:28;;;;;;;41.80;20.60;;;;;;;-6.10;100.00;99794.43;106230;1253;61355;-76
2023/02/05 07:17:56;;;;;;;58.50;27.00;;;;;;;-6.02;100.00;99799.89;106245;1254;61351;-77
2023/02/05 07:20:22;;;;;;;49.30;27.40;;;;;;;-5.92;100.00;99803.15;106254;1252;61298;-76
2023/02/05 07:22:48;;;;;;;59.90;31.10;;;;;;;-5.83;100.00;99803.02;106289;1253;61334;-76
2023/02/05 07:25:15;;;;;;;55.80;33.90;;;;;;;-5.76;100.00;99807.38;106240;1253;61337;-76
2023/02/05 07:27:41;;;;;;;59.60;35.00;;;;;;;-5.66;100.00;99811.09;106221;1256;61390;-78
2023/02/05 07:30:08;;;;;;;27.30;15.10;;;;;;;-5.59;100.00;99816.80;106262;1256;61331;-78
2023/02/05 07:32:35;;;;;;;24.20;14.50;;;;;;;-5.58;100.00;99820.10;106233;1256;61247;-76
2023/02/05 07:35:01;;;;;;;31.20;17.50;;;;;;;-5.53;100.00;99822.23;106261;1256;61364;-78
2023/02/05 07:37:28;;;;;;;32.00;15.70;;;;;;;-5.46;100.00;99831.48;106254;1254;61087;-78
2023/02/05 07:39:54;;;;;;;27.20;14.70;;;;;;;-5.40;100.00;99834.14;106285;1251;62343;-76
2023/02/05 07:42:20;;;;;;;34.30;17.40;;;;;;;-5.32;100.00;99836.84;106341;1251;61711;-77
2023/02/05 07:44:47;;;;;;;30.00;16.80;;;;;;;-5.23;100.00;99842.90;106251;1255;61249;-77
2023/02/05 07:47:13;;;;;;;29.30;17.10;;;;;;;-5.17;100.00;99846.02;106304;1251;61249;-76
2023/02/05 07:49:40;;;;;;;40.40;24.60;;;;;;;-5.24;100.00;99848.77;106219;1253;61415;-76
2023/02/05 07:52:06;;;;;;;28.00;17.00;;;;;;;-5.29;100.00;99848.87;106274;1251;61221;-77
2023/02/05 07:54:32;;;;;;;61.30;29.70;;;;;;;-5.31;100.00;99853.08;106240;1257;61322;-76
2023/02/05 07:57:00;;;;;;;41.10;27.70;;;;;;;-5.31;100.00;99845.02;106233;1254;61269;-78
2023/02/05 07:59:27;;;;;;;46.30;27.80;;;;;;;-5.22;100.00;99845.44;106303;1253;61212;-78
2023/02/05 08:01:53;;;;;;;26.30;16.50;;;;;;;-5.19;100.00;99851.88;106380;1256;61381;-77
2023/02/05 08:04:20;;;;;;;91.20;54.20;;;;;;;-5.20;100.00;99853.55;106310;1254;61317;-78
2023/02/05 08:06:46;;;;;;;29.20;18.10;;;;;;;-5.10;100.00;99848.62;106472;1254;61326;-77
2023/02/05 08:09:13;;;;;;;31.00;19.50;;;;;;;-5.00;100.00;99851.41;106272;1254;61369;-77
2023/02/05 08:11:39;;;;;;;20.70;14.30;;;;;;;-4.90;100.00;99847.73;106391;1252;61240;-76
2023/02/05 08:14:06;;;;;;;44.30;24.60;;;;;;;-4.86;100.00;99851.61;106349;1256;61176;-77
2023/02/05 08:16:32;;;;;;;26.00;18.50;;;;;;;-4.83;100.00;99849.70;106371;1253;61259;-78
2023/02/05 08:18:58;;;;;;;18.50;10.50;;;;;;;-4.87;100.00;99852.73;106338;1254;61218;-78
2023/02/05 08:21:25;;;;;;;35.20;20.60;;;;;;;-4.92;100.00;99851.79;106441;1252;61514;-77
2023/02/05 08:23:51;;;;;;;30.80;19.70;;;;;;;-4.91;100.00;99855.77;106096;1254;61383;-77
2023/02/05 08:26:18;;;;;;;31.50;22.30;;;;;;;-4.76;100.00;99857.39;106774;1253;61358;-77
2023/02/05 08:28:45;;;;;;;28.10;16.70;;;;;;;-4.60;100.00;99857.41;106386;1256;61185;-77
2023/02/05 08:31:13;;;;;;;17.70;11.40;;;;;;;-4.52;100.00;99858.74;106292;1254;61349;-77
2023/02/05 08:33:39;;;;;;;16.50;7.90;;;;;;;-4.45;100.00;99853.70;106285;1253;61691;-76
2023/02/05 08:36:06;;;;;;;11.30;5.60;;;;;;;-4.36;100.00;99850.42;106370;1256;61355;-79
2023/02/05 08:38:32;;;;;;;11.10;4.60;;;;;;;-4.27;100.00;99848.30;106263;1254;73446;-77
2023/02/05 08:41:03;;;;;;;10.20;5.90;;;;;;;-4.06;100.00;99847.44;106377;1251;63083;-75
2023/02/05 08:43:29;;;;;;;10.20;5.90;;;;;;;-3.91;99.34;99850.52;106277;1251;71497;-79
2023/02/05 08:45:56;;;;;;;13.20;5.10;;;;;;;-3.90;97.66;99853.10;106593;1251;61349;-79
2023/02/05 08:48:22;;;;;;;5.70;3.50;;;;;;;-3.73;100.00;99851.14;106369;1255;61272;-77
2023/02/05 08:50:49;;;;;;;10.70;5.00;;;;;;;-3.71;100.00;99853.52;106379;1255;61272;-76
2023/02/05 08:53:15;;;;;;;16.30;11.30;;;;;;;-3.68;100.00;99857.13;106319;1251;61212;-79
2023/02/05 08:55:41;;;;;;;22.30;13.60;;;;;;;-3.67;99.68;99857.95;106123;1251;61449;-80
2023/02/05 08:58:08;;;;;;;18.30;13.70;;;;;;;-3.67;98.82;99858.36;106283;1255;61333;-77
2023/02/05 09:00:36;;;;;;;13.50;8.40;;;;;;;-3.62;99.12;99854.30;106289;1257;61252;-77
2023/02/05 09:03:03;;;;;;;17.80;10.30;;;;;;;-3.61;98.35;99854.98;106373;1254;74638;-78
2023/02/05 09:05:29;;;;;;;29.80;17.20;;;;;;;-3.63;97.61;99862.24;106304;1251;70805;-77
2023/02/05 09:07:58;;;;;;;21.20;11.90;;;;;;;-3.69;95.98;99866.95;106409;1251;61198;-79
2023/02/05 09:10:24;;;;;;;20.00;10.90;;;;;;;-3.59;96.55;99868.92;106402;1251;61419;-78
2023/02/05 09:12:51;;;;;;;44.10;17.80;;;;;;;-3.46;97.43;99865.67;106307;1251;61323;-78
2023/02/05 09:15:18;;;;;;;18.30;7.50;;;;;;;-3.32;100.00;99865.04;106428;1251;74517;-77
2023/02/05 09:17:45;;;;;;;19.20;10.20;;;;;;;-3.34;96.40;99865.61;106319;1255;61236;-79
2023/02/05 09:20:11;;;;;;;12.50;9.30;;;;;;;-3.26;96.06;99863.56;106286;1256;71482;-78
2023/02/05 09:22:38;;;;;;;21.40;8.80;;;;;;;-3.16;94.55;99865.88;106256;1252;61553;-77
2023/02/05 09:25:05;;;;;;;11.20;6.60;;;;;;;-3.19;93.12;99859.19;106281;1251;61298;-79
2023/02/05 09:27:31;;;;;;;29.70;13.20;;;;;;;-3.06;95.41;99856.91;106332;1252;72557;-78
2023/02/05 09:29:58;;;;;;;18.00;6.90;;;;;;;-2.99;97.07;99860.45;106303;1251;61342;-79
2023/02/05 09:32:24;;;;;;;10.10;6.40;;;;;;;-3.06;95.33;99858.51;106512;1254;61218;-77
2023/02/05 09:34:51;;;;;;;18.30;9.00;;;;;;;-3.06;95.81;99861.36;106377;1251;61359;-77
2023/02/05 09:37:17;;;;;;;22.40;11.40;;;;;;;-2.94;97.40;99855.95;106765;1255;61244;-77
2023/02/05 09:39:44;;;;;;;18.50;10.00;;;;;;;-2.96;94.97;99861.61;106259;1254;61349;-77
2023/02/05 09:42:35;;;;;;;18.80;9.60;;;;;;;-3.19;91.63;99861.88;106473;1255;61318;-79
2023/02/05 09:45:10;;;;;;;22.80;13.30;;;;;;;-3.18;91.84;99860.03;106216;1254;63993;-79
2023/02/05 09:47:53;;;;;;;21.60;11.30;;;;;;;-3.30;92.06;99857.32;106039;1251;61231;-78
2023/02/05 09:50:28;;;;;;;11.30;6.20;;;;;;;-3.51;92.66;99856.06;106314;1251;61831;-78
2023/02/05 09:53:05;;;;;;;17.20;10.00;;;;;;;-3.56;95.07;99859.40;106320;1253;65919;-78
2023/02/05 09:55:39;;;;;;;11.60;6.70;;;;;;;-3.56;96.61;99860.26;106370;1255;61458;-78
2023/02/05 09:58:10;;;;;;;13.10;8.00;;;;;;;-3.61;98.00;99865.48;106370;1254;72541;-76
2023/02/05 10:01:03;;;;;;;11.00;6.40;;;;;;;-3.64;98.98;99869.38;106530;1253;61276;-78
2023/02/05 10:03:40;;;;;;;149.40;86.50;;;;;;;-3.65;99.85;99871.55;106306;1252;61523;-77
2023/02/05 10:06:31;;;;;;;36.50;26.40;;;;;;;-3.89;100.00;99876.92;106579;1254;64845;-78
2023/02/05 10:09:01;;;;;;;25.10;16.20;;;;;;;-4.30;100.00;99881.48;106451;1254;62176;-76
2023/02/05 10:11:33;;;;;;;17.90;8.30;;;;;;;-4.39;100.00;99874.55;106471;1252;72483;-78
2023/02/05 10:14:17;;;;;;;32.20;23.60;;;;;;;-4.48;100.00;99873.88;106517;1253;61967;-78
2023/02/05 10:17:23;;;;;;;59.90;27.10;;;;;;;-4.64;100.00;99871.99;106258;1254;61304;-77
2023/02/05 10:20:15;;;;;;;82.70;41.30;;;;;;;-4.64;100.00;99869.55;106567;1256;64741;-77
2023/02/05 10:22:57;;;;;;;68.10;33.20;;;;;;;-4.65;100.00;99872.98;106777;1253;61683;-79
2023/02/05 10:25:54;;;;;;;56.50;28.20;;;;;;;-4.53;100.00;99871.95;106227;1254;62881;-77
2023/02/05 10:28:43;;;;;;;22.90;14.50;;;;;;;-4.43;100.00;99876.61;106593;1252;61656;-77
2023/02/05 10:31:22;;;;;;;24.60;16.50;;;;;;;-4.18;100.00;99875.41;106307;1256;61223;-76
2023/02/05 10:33:56;;;;;;;21.60;13.70;;;;;;;-3.98;100.00;99875.02;106030;1259;74555;-76
2023/02/05 10:36:24;;;;;;;15.50;10.20;;;;;;;-3.62;100.00;99875.64;106266;1254;71008;-79
2023/02/05 10:38:53;;;;;;;81.10;51.30;;;;;;;-3.43;99.82;99872.80;106222;1254;72990;-79
2023/02/05 10:41:37;;;;;;;89.30;56.80;;;;;;;-3.27;98.43;99878.15;106410;1256;61236;-78
2023/02/05 10:44:24;;;;;;;19.90;11.60;;;;;;;-2.88;99.48;99875.47;106295;1251;61573;-79
2023/02/05 10:46:52;;;;;;;23.90;7.90;;;;;;;-2.53;98.91;99874.39;106288;1251;73121;-77
2023/02/05 10:49:19;;;;;;;;;;;;;;;-2.55;95.93;99868.36;106328;1257;69935;-77
2023/02/05 10:51:45;;;;;;;17.30;9.20;;;;;;;-2.51;95.25;99869.08;106282;1256;61260;-77
2023/02/05 10:54:18;;;;;;;24.70;13.10;;;;;;;-2.34;96.40;99868.09;106290;1251;61441;-77
2023/02/05 10:56:44;;;;;;;20.80;13.80;;;;;;;-2.36;94.38;99869.70;106325;1254;61212;-76
2023/02/05 11:00:00;;;;;;;24.90;16.70;;;;;;;-2.56;91.49;99867.82;106068;1254;61307;-76
2023/02/05 11:02:37;;;;;;;17.10;11.00;;;;;;;-2.33;94.48;99869.42;106256;1256;62780;-79
2023/02/05 11:05:37;;;;;;;15.80;9.60;;;;;;;-2.27;92.08;99870.91;106301;1254;63043;-79
2023/02/05 11:08:03;;;;;;;13.80;8.90;;;;;;;-2.26;90.65;99859.99;106205;1254;61199;-76
2023/02/05 11:10:32;;;;;;;18.20;10.40;;;;;;;-2.13;90.83;99855.45;106335;1252;61349;-78
2023/02/05 11:13:17;;;;;;;20.30;11.80;;;;;;;-2.04;91.98;99849.29;106375;1252;73414;-78
2023/02/05 11:15:54;;;;;;;26.20;15.00;;;;;;;-2.00;91.33;99843.94;106308;1254;71017;-76
2023/02/05 11:18:26;;;;;;;37.00;18.80;;;;;;;-2.13;89.19;99844.40;106217;1252;72631;-77
2023/02/05 11:20:54;;;;;;;34.00;17.60;;;;;;;-2.07;91.20;99848.50;106259;1253;61349;-80
2023/02/05 11:23:22;;;;;;;16.70;8.70;;;;;;;-2.47;89.53;99843.68;106112;1254;61158;-77
2023/02/05 11:25:53;;;;;;;20.40;11.00;;;;;;;-2.76;90.32;99844.27;106265;1254;72753;-76